Time;durP1;ratioP1;P1;durP2;ratioP2;P2;SDS_P1;SDS_P2;PMS_P1;PMS_P2;Temp;Humidity;BMP_temperature;BMP_pressure;BME280_temperature;BME280_humidity;BME280_pressure;Samples;Min_cycle;Max_cycle;Signal;HPM_P1;HPM_P2
2020/12/04 06:02:42;;;;;;;12.52;1.45;;;;;;;;;;5063654;27;20373;-51
2020/12/04 06:05:11;;;;;;;11.55;1.83;;;;;;;;;;5068510;28;20087;-52
2020/12/04 06:07:39;;;;;;;11.20;1.92;;;;;;;;;;5064105;28;20120;-51
2020/12/04 06:10:06;;;;;;;8.50;2.28;;;;;;;;;;5063942;28;20509;-51
2020/12/04 06:12:32;;;;;;;4.47;1.23;;;;;;;;;;5063787;28;20102;-51
2020/12/04 06:15:17;;;;;;;12.75;3.03;;;;;;;;;;5064143;28;20017;-53
2020/12/04 06:17:43;;;;;;;8.48;1.48;;;;;;;;;;5048750;28;20042;-54
2020/12/04 06:20:19;;;;;;;13.60;1.42;;;;;;;;;;5068039;28;20016;-55
2020/12/04 06:23:03;;;;;;;9.70;1.73;;;;;;;;;;5065131;28;20416;-52
2020/12/04 06:25:49;;;;;;;7.65;1.50;;;;;;;;;;5063619;28;20044;-51
2020/12/04 06:28:16;;;;;;;9.35;1.55;;;;;;;;;;5063681;28;20162;-52
2020/12/04 06:30:45;;;;;;;6.93;1.75;;;;;;;;;;5063810;28;20041;-52
2020/12/04 06:33:29;;;;;;;12.13;1.77;;;;;;;;;;5064199;28;20028;-51
2020/12/04 06:35:55;;;;;;;7.68;1.05;;;;;;;;;;5049630;28;20087;-52
2020/12/04 06:38:34;;;;;;;8.40;1.75;;;;;;;;;;5065915;28;20452;-53
2020/12/04 06:41:19;;;;;;;12.38;1.52;;;;;;;;;;5066250;28;20029;-52
2020/12/04 06:43:46;;;;;;;13.30;2.28;;;;;;;;;;5064904;28;20374;-54
2020/12/04 06:46:30;;;;;;;9.40;1.10;;;;;;;;;;5064243;28;20032;-56
2020/12/04 06:49:22;;;;;;;8.90;1.13;;;;;;;;;;5064324;28;20489;-51
2020/12/04 06:51:55;;;;;;;5.47;1.85;;;;;;;;;;5062467;28;20502;-51
2020/12/04 06:54:21;;;;;;;9.55;1.38;;;;;;;;;;5062898;28;20159;-51
2020/12/04 06:56:47;;;;;;;9.27;2.03;;;;;;;;;;5063446;28;20104;-52
2020/12/04 06:59:13;;;;;;;11.70;1.75;;;;;;;;;;5066583;28;20052;-54
2020/12/04 07:01:39;;;;;;;9.32;1.63;;;;;;;;;;5062414;28;20045;-52
2020/12/04 07:04:06;;;;;;;9.02;1.40;;;;;;;;;;5049718;28;20025;-53
2020/12/04 07:06:32;;;;;;;8.27;2.00;;;;;;;;;;5047619;28;20037;-53
2020/12/04 07:09:04;;;;;;;10.25;1.67;;;;;;;;;;5047970;28;20045;-55
2020/12/04 07:11:31;;;;;;;8.55;1.85;;;;;;;;;;5049776;28;20175;-52
2020/12/04 07:13:57;;;;;;;7.00;1.40;;;;;;;;;;5049464;28;20021;-52
2020/12/04 07:16:24;;;;;;;5.85;1.10;;;;;;;;;;5050040;28;20370;-52
2020/12/04 07:18:53;;;;;;;9.23;1.77;;;;;;;;;;5050028;28;20038;-53
2020/12/04 07:21:20;;;;;;;4.80;1.20;;;;;;;;;;5049841;28;20025;-53
2020/12/04 07:23:46;;;;;;;4.15;0.80;;;;;;;;;;5050005;28;20017;-52
2020/12/04 07:26:15;;;;;;;2.65;0.55;;;;;;;;;;5053589;28;20037;-52
2020/12/04 07:28:43;;;;;;;2.25;0.70;;;;;;;;;;5052022;28;20046;-52
2020/12/04 07:31:17;;;;;;;3.40;0.70;;;;;;;;;;5049829;28;20386;-52
2020/12/04 07:33:57;;;;;;;5.22;0.50;;;;;;;;;;5046800;28;20028;-54
2020/12/04 07:36:28;;;;;;;4.28;0.90;;;;;;;;;;5045906;28;20025;-52
2020/12/04 07:38:54;;;;;;;4.68;1.13;;;;;;;;;;5046378;28;20028;-53
2020/12/04 07:41:39;;;;;;;4.53;1.33;;;;;;;;;;5050358;28;20055;-52
2020/12/04 07:44:07;;;;;;;7.60;0.93;;;;;;;;;;5048610;28;20449;-52
2020/12/04 07:46:34;;;;;;;7.82;0.90;;;;;;;;;;5048787;28;20029;-51
2020/12/04 07:49:01;;;;;;;10.40;1.42;;;;;;;;;;5050134;28;20039;-54
2020/12/04 07:51:27;;;;;;;7.63;1.42;;;;;;;;;;5052547;28;20218;-55
2020/12/04 07:53:55;;;;;;;4.88;0.90;;;;;;;;;;5048718;28;20059;-52
2020/12/04 07:56:24;;;;;;;7.45;1.27;;;;;;;;;;5049866;28;20071;-52
2020/12/04 07:58:55;;;;;;;9.68;1.92;;;;;;;;;;5048466;28;20021;-55
2020/12/04 08:01:22;;;;;;;12.07;1.80;;;;;;;;;;5048676;28;20494;-53
2020/12/04 08:03:49;;;;;;;8.20;1.40;;;;;;;;;;5051477;28;20138;-51
2020/12/04 08:06:15;;;;;;;5.22;1.42;;;;;;;;;;5049694;28;20459;-55
2020/12/04 08:08:42;;;;;;;8.88;2.45;;;;;;;;;;5048688;28;20048;-55
2020/12/04 08:11:11;;;;;;;16.08;1.55;;;;;;;;;;5048552;28;20162;-52
2020/12/04 08:13:39;;;;;;;13.50;2.03;;;;;;;;;;5048597;28;20071;-52
2020/12/04 08:16:08;;;;;;;16.88;3.50;;;;;;;;;;5049961;28;20032;-55
2020/12/04 08:18:35;;;;;;;10.70;2.97;;;;;;;;;;5051527;28;20037;-55
2020/12/04 08:21:07;;;;;;;10.13;2.05;;;;;;;;;;5050193;28;20079;-54
2020/12/04 08:23:33;;;;;;;12.70;3.28;;;;;;;;;;5049985;28;20036;-52
2020/12/04 08:25:59;;;;;;;14.88;3.58;;;;;;;;;;5050037;28;20025;-53
2020/12/04 08:28:25;;;;;;;15.50;3.13;;;;;;;;;;5049854;28;20044;-51
2020/12/04 08:30:52;;;;;;;12.85;4.03;;;;;;;;;;5049857;28;20390;-55
2020/12/04 08:33:18;;;;;;;10.35;3.15;;;;;;;;;;5050376;28;20509;-54
2020/12/04 08:35:45;;;;;;;8.25;2.03;;;;;;;;;;5048170;28;20103;-53
2020/12/04 08:38:16;;;;;;;6.60;1.40;;;;;;;;;;5048876;28;20013;-54
2020/12/04 08:40:46;;;;;;;6.22;1.55;;;;;;;;;;5049149;28;20021;-53
2020/12/04 08:43:14;;;;;;;8.18;1.77;;;;;;;;;;5031978;28;20020;-54
2020/12/04 08:45:41;;;;;;;11.27;2.28;;;;;;;;;;5051580;28;20108;-54
2020/12/04 08:48:12;;;;;;;13.27;1.88;;;;;;;;;;5048152;28;20473;-53
2020/12/04 08:50:40;;;;;;;15.38;3.17;;;;;;;;;;5049108;28;20037;-52
2020/12/04 08:53:08;;;;;;;10.23;1.30;;;;;;;;;;5049036;28;20390;-51
2020/12/04 08:55:35;;;;;;;6.53;1.50;;;;;;;;;;5048701;28;20024;-54
2020/12/04 08:58:01;;;;;;;10.63;1.73;;;;;;;;;;5047787;28;20135;-52
2020/12/04 09:00:30;;;;;;;17.98;2.80;;;;;;;;;;5048922;28;20501;-51
2020/12/04 09:02:56;;;;;;;8.07;1.40;;;;;;;;;;5047147;28;20052;-52
2020/12/04 09:05:23;;;;;;;13.98;2.22;;;;;;;;;;5046606;28;20409;-54
2020/12/04 09:07:49;;;;;;;12.93;2.60;;;;;;;;;;5049879;28;20078;-51
2020/12/04 09:10:16;;;;;;;8.23;1.58;;;;;;;;;;5046890;28;20531;-56
2020/12/04 09:12:44;;;;;;;10.82;1.98;;;;;;;;;;5047130;28;20195;-63
2020/12/04 09:15:11;;;;;;;16.08;2.20;;;;;;;;;;5047199;28;20033;-51
2020/12/04 09:17:37;;;;;;;9.90;1.50;;;;;;;;;;5047056;28;20028;-52
2020/12/04 09:20:04;;;;;;;9.10;1.75;;;;;;;;;;5046947;28;20482;-55
2020/12/04 09:22:30;;;;;;;9.32;1.98;;;;;;;;;;5047374;28;20014;-51
2020/12/04 09:24:58;;;;;;;9.95;1.40;;;;;;;;;;5049176;28;20035;-53
2020/12/04 09:27:24;;;;;;;10.02;1.95;;;;;;;;;;5048432;28;20037;-55
2020/12/04 09:29:51;;;;;;;8.43;1.20;;;;;;;;;;5046698;28;20033;-53
2020/12/04 09:32:17;;;;;;;14.55;2.08;;;;;;;;;;5048355;28;20200;-54
2020/12/04 09:34:45;;;;;;;11.40;2.35;;;;;;;;;;5046682;28;20017;-51
2020/12/04 09:37:11;;;;;;;21.02;5.20;;;;;;;;;;5047660;28;20028;-53
2020/12/04 09:39:38;;;;;;;10.30;1.42;;;;;;;;;;5050290;28;20413;-52
2020/12/04 09:42:06;;;;;;;9.50;3.40;;;;;;;;;;5046900;28;20021;-52
2020/12/04 09:44:33;;;;;;;6.20;1.67;;;;;;;;;;5046853;28;20075;-52
2020/12/04 09:46:59;;;;;;;7.10;1.13;;;;;;;;;;5047981;28;20574;-51
2020/12/04 09:49:25;;;;;;;4.18;1.10;;;;;;;;;;5046561;28;20112;-53
2020/12/04 09:51:51;;;;;;;7.70;1.52;;;;;;;;;;5049506;28;20040;-50
2020/12/04 09:54:17;;;;;;;5.82;1.10;;;;;;;;;;5049623;28;20021;-54
2020/12/04 09:56:43;;;;;;;4.90;1.00;;;;;;;;;;5048191;28;20028;-52
2020/12/04 09:59:10;;;;;;;5.40;1.20;;;;;;;;;;5048457;28;20086;-51
2020/12/04 10:01:36;;;;;;;3.58;1.60;;;;;;;;;;5046585;28;20083;-55
2020/12/04 10:04:02;;;;;;;8.35;1.83;;;;;;;;;;5048452;28;20036;-53
2020/12/04 10:06:28;;;;;;;6.25;2.15;;;;;;;;;;5048739;28;20068;-52
2020/12/04 10:08:54;;;;;;;3.33;1.10;;;;;;;;;;5046214;28;20481;-51
2020/12/04 10:11:20;;;;;;;8.48;1.50;;;;;;;;;;5047734;28;20045;-52
2020/12/04 10:13:47;;;;;;;4.70;0.80;;;;;;;;;;5048458;28;20055;-53
2020/12/04 10:16:13;;;;;;;4.03;1.02;;;;;;;;;;5048676;28;20036;-51
2020/12/04 10:18:39;;;;;;;9.18;1.30;;;;;;;;;;5049791;28;20021;-51
2020/12/04 10:21:05;;;;;;;9.55;1.30;;;;;;;;;;5048146;28;20064;-51
2020/12/04 10:23:31;;;;;;;9.20;1.70;;;;;;;;;;5048204;28;20016;-53
2020/12/04 10:25:59;;;;;;;11.80;3.35;;;;;;;;;;5047455;28;20025;-51
2020/12/04 10:28:28;;;;;;;10.65;3.78;;;;;;;;;;5045057;28;20100;-53
2020/12/04 10:30:57;;;;;;;15.25;5.15;;;;;;;;;;5048455;28;20036;-52
2020/12/04 10:33:23;;;;;;;8.73;2.88;;;;;;;;;;5049219;28;20083;-53
2020/12/04 10:35:49;;;;;;;5.88;1.75;;;;;;;;;;5048119;28;20032;-51
2020/12/04 10:38:15;;;;;;;10.55;1.50;;;;;;;;;;5050142;28;20017;-51
2020/12/04 10:40:41;;;;;;;7.03;0.77;;;;;;;;;;5049797;28;20456;-52
2020/12/04 10:43:07;;;;;;;5.97;1.20;;;;;;;;;;5051754;28;20028;-52
2020/12/04 10:45:33;;;;;;;7.47;1.40;;;;;;;;;;5053533;28;20075;-52
2020/12/04 10:47:59;;;;;;;9.35;2.05;;;;;;;;;;5051766;28;20078;-53
2020/12/04 10:50:26;;;;;;;12.55;2.47;;;;;;;;;;5051727;28;20032;-52
2020/12/04 10:52:52;;;;;;;7.85;1.60;;;;;;;;;;5051686;28;20067;-54
2020/12/04 10:55:18;;;;;;;6.18;1.05;;;;;;;;;;5051698;28;20390;-51
2020/12/04 10:57:44;;;;;;;9.25;1.50;;;;;;;;;;5052940;28;20021;-52
2020/12/04 11:00:10;;;;;;;6.95;2.15;;;;;;;;;;5051585;28;20032;-54
2020/12/04 11:02:39;;;;;;;6.20;1.45;;;;;;;;;;5050594;28;20057;-52
2020/12/04 11:07:51;;;;;;;2.85;0.90;;;;;;;;;;5049966;28;20452;-51
2020/12/04 11:10:17;;;;;;;8.40;1.50;;;;;;;;;;5050900;28;20021;-54
2020/12/04 11:12:43;;;;;;;7.88;1.33;;;;;;;;;;5052987;28;20068;-51
2020/12/04 11:15:09;;;;;;;4.85;1.48;;;;;;;;;;5051079;28;20085;-51
2020/12/04 11:17:36;;;;;;;4.35;1.20;;;;;;;;;;5051171;28;20040;-51
2020/12/04 11:20:03;;;;;;;4.75;0.85;;;;;;;;;;5051154;28;20021;-52
2020/12/04 11:22:33;;;;;;;7.32;1.48;;;;;;;;;;5050995;28;20032;-52
2020/12/04 11:24:59;;;;;;;7.68;1.80;;;;;;;;;;5049339;28;20044;-53
2020/12/04 11:27:25;;;;;;;7.80;1.10;;;;;;;;;;5052305;28;20052;-52
2020/12/04 11:29:51;;;;;;;7.63;1.30;;;;;;;;;;5051419;28;20029;-52
2020/12/04 11:32:17;;;;;;;8.25;1.45;;;;;;;;;;5050678;28;20130;-52
2020/12/04 11:34:44;;;;;;;7.00;1.20;;;;;;;;;;5051069;28;20028;-51
2020/12/04 11:37:10;;;;;;;8.10;1.30;;;;;;;;;;5050768;28;20596;-54
2020/12/04 11:39:39;;;;;;;6.45;0.90;;;;;;;;;;5052298;28;20409;-53
2020/12/04 11:42:07;;;;;;;4.82;1.02;;;;;;;;;;5050605;28;20108;-52
2020/12/04 11:44:33;;;;;;;5.97;1.70;;;;;;;;;;5050057;28;20041;-51
2020/12/04 11:46:59;;;;;;;8.57;0.90;;;;;;;;;;5048782;28;20444;-52
2020/12/04 11:49:25;;;;;;;5.20;1.27;;;;;;;;;;5050281;28;20028;-52
2020/12/04 11:51:52;;;;;;;7.05;0.77;;;;;;;;;;5051477;28;20123;-51
2020/12/04 11:54:18;;;;;;;4.75;1.27;;;;;;;;;;5049563;28;20094;-51
2020/12/04 11:56:50;;;;;;;5.68;1.00;;;;;;;;;;5047852;28;20021;-52
2020/12/04 11:59:17;;;;;;;12.40;1.30;;;;;;;;;;5048173;28;20036;-52
2020/12/04 12:01:43;;;;;;;5.53;1.10;;;;;;;;;;5048161;28;20155;-55
2020/12/04 12:04:12;;;;;;;4.18;1.05;;;;;;;;;;5050482;28;20037;-53
2020/12/04 12:06:39;;;;;;;5.95;1.27;;;;;;;;;;5052004;28;20533;-53
2020/12/04 12:09:05;;;;;;;7.95;1.30;;;;;;;;;;5050174;28;20519;-53
2020/12/04 12:11:31;;;;;;;6.40;1.35;;;;;;;;;;5047952;28;20102;-52
2020/12/04 12:13:57;;;;;;;7.47;1.10;;;;;;;;;;5049892;28;20021;-53
2020/12/04 12:16:23;;;;;;;5.03;1.45;;;;;;;;;;5048090;28;20030;-52
2020/12/04 12:18:49;;;;;;;7.13;1.50;;;;;;;;;;5051669;28;20508;-56
2020/12/04 12:21:15;;;;;;;8.07;1.40;;;;;;;;;;5049103;28;20075;-51
2020/12/04 12:23:42;;;;;;;6.45;1.30;;;;;;;;;;5047915;28;20410;-54
2020/12/04 12:26:08;;;;;;;7.47;1.20;;;;;;;;;;5048278;28;20489;-51
2020/12/04 12:28:34;;;;;;;12.50;1.80;;;;;;;;;;5049792;28;20464;-51
2020/12/04 12:31:00;;;;;;;12.73;1.55;;;;;;;;;;5041373;28;20033;-54
2020/12/04 12:33:27;;;;;;;7.35;1.23;;;;;;;;;;5049631;28;20031;-51
2020/12/04 12:35:53;;;;;;;11.52;1.67;;;;;;;;;;5048094;28;20029;-54
2020/12/04 12:38:19;;;;;;;13.98;1.60;;;;;;;;;;5047657;28;20478;-55
2020/12/04 12:40:45;;;;;;;12.73;1.58;;;;;;;;;;5047514;28;20025;-56
2020/12/04 12:43:11;;;;;;;21.30;1.88;;;;;;;;;;5049035;28;20068;-53
2020/12/04 12:45:38;;;;;;;10.68;2.00;;;;;;;;;;5051199;28;20402;-51
2020/12/04 12:48:05;;;;;;;8.00;1.42;;;;;;;;;;5059902;28;20029;-52
2020/12/04 12:50:31;;;;;;;10.52;1.75;;;;;;;;;;5053038;28;20032;-54
2020/12/04 12:52:57;;;;;;;6.00;2.05;;;;;;;;;;5047318;28;20140;-52
2020/12/04 12:55:23;;;;;;;11.57;1.50;;;;;;;;;;5052679;28;20029;-55
2020/12/04 12:57:49;;;;;;;12.05;1.45;;;;;;;;;;5050315;28;20060;-55
2020/12/04 13:00:16;;;;;;;8.23;1.85;;;;;;;;;;5047783;28;20103;-53
2020/12/04 13:02:42;;;;;;;6.00;1.38;;;;;;;;;;5047610;28;20140;-55
2020/12/04 13:07:53;;;;;;;14.43;2.50;;;;;;;;;;5047295;28;20040;-56
2020/12/04 13:10:19;;;;;;;11.88;1.40;;;;;;;;;;5047306;28;20029;-55
2020/12/04 13:12:47;;;;;;;9.23;2.30;;;;;;;;;;5048950;28;20520;-52
2020/12/04 13:15:13;;;;;;;10.55;2.40;;;;;;;;;;5049259;28;20025;-52
2020/12/04 13:17:39;;;;;;;8.48;1.55;;;;;;;;;;5047981;28;20032;-51
2020/12/04 13:20:06;;;;;;;7.53;1.30;;;;;;;;;;5048379;28;20017;-54
2020/12/04 13:22:32;;;;;;;11.30;1.92;;;;;;;;;;5047480;28;20029;-54
2020/12/04 13:24:58;;;;;;;13.77;1.63;;;;;;;;;;5048242;28;20102;-52
2020/12/04 13:27:25;;;;;;;13.27;1.95;;;;;;;;;;5049979;28;20031;-65
2020/12/04 13:29:51;;;;;;;9.75;1.77;;;;;;;;;;5047536;28;20029;-54
2020/12/04 13:32:17;;;;;;;8.68;1.65;;;;;;;;;;5047482;28;20036;-52
2020/12/04 13:34:43;;;;;;;10.63;2.20;;;;;;;;;;5046760;28;20014;-53
2020/12/04 13:37:09;;;;;;;22.48;3.42;;;;;;;;;;5047690;28;20082;-56
2020/12/04 13:39:35;;;;;;;9.02;2.17;;;;;;;;;;5049152;28;20551;-51
2020/12/04 13:42:01;;;;;;;7.43;1.23;;;;;;;;;;5047991;28;20039;-52
2020/12/04 13:44:28;;;;;;;11.30;1.83;;;;;;;;;;5048026;28;20021;-55
2020/12/04 13:46:54;;;;;;;10.65;1.80;;;;;;;;;;5047757;28;20452;-52
2020/12/04 13:49:21;;;;;;;10.50;1.60;;;;;;;;;;5047472;28;20025;-55
2020/12/04 13:51:48;;;;;;;10.02;1.20;;;;;;;;;;5048433;28;20119;-54
2020/12/04 13:54:14;;;;;;;17.65;1.92;;;;;;;;;;5047809;28;20025;-51
2020/12/04 13:56:40;;;;;;;6.95;1.60;;;;;;;;;;5047446;28;20024;-53
2020/12/04 13:59:07;;;;;;;11.05;2.00;;;;;;;;;;5047223;28;20044;-54
2020/12/04 14:01:34;;;;;;;9.85;1.67;;;;;;;;;;5046527;28;20041;-55
2020/12/04 14:04:00;;;;;;;10.68;1.77;;;;;;;;;;5048090;28;20394;-55
2020/12/04 14:06:26;;;;;;;8.88;1.48;;;;;;;;;;5048761;28;20029;-54
2020/12/04 14:08:53;;;;;;;7.95;1.52;;;;;;;;;;5045274;28;20025;-53
2020/12/04 14:11:19;;;;;;;7.05;1.85;;;;;;;;;;5048009;28;20104;-53
2020/12/04 14:13:45;;;;;;;8.23;2.10;;;;;;;;;;5051385;28;20495;-54
2020/12/04 14:16:12;;;;;;;32.95;12.52;;;;;;;;;;5052218;28;20379;-56
2020/12/04 14:18:38;;;;;;;11.50;2.53;;;;;;;;;;5053653;28;20048;-61
2020/12/04 14:21:08;;;;;;;11.05;1.60;;;;;;;;;;5051675;28;20025;-61
2020/12/04 14:23:35;;;;;;;5.93;1.88;;;;;;;;;;5050083;28;20057;-61
2020/12/04 14:26:01;;;;;;;9.93;1.60;;;;;;;;;;5051901;28;20052;-64
2020/12/04 14:28:28;;;;;;;14.10;2.17;;;;;;;;;;5049984;28;20025;-61
2020/12/04 14:30:54;;;;;;;5.78;1.20;;;;;;;;;;5038652;28;20038;-63
2020/12/04 14:33:20;;;;;;;12.23;2.03;;;;;;;;;;5051732;28;20029;-61
2020/12/04 14:35:46;;;;;;;11.75;1.58;;;;;;;;;;5049747;28;20529;-61
2020/12/04 14:39:02;;;;;;;10.60;1.88;;;;;;;;;;5050034;28;20062;-61
2020/12/04 14:40:59;;;;;;;10.07;1.48;;;;;;;;;;5049817;28;20106;-61
2020/12/04 14:43:25;;;;;;;10.55;1.52;;;;;;;;;;5051726;28;20376;-61
2020/12/04 14:45:51;;;;;;;8.82;1.75;;;;;;;;;;5052937;28;20033;-55
2020/12/04 14:48:17;;;;;;;11.82;2.20;;;;;;;;;;5051062;28;20036;-57
2020/12/04 14:50:43;;;;;;;16.15;2.35;;;;;;;;;;5050978;28;20029;-55
2020/12/04 14:53:10;;;;;;;13.15;2.95;;;;;;;;;;5049763;28;20476;-53
2020/12/04 14:55:36;;;;;;;11.48;2.00;;;;;;;;;;5049938;28;20057;-53
2020/12/04 14:58:02;;;;;;;12.25;1.92;;;;;;;;;;5052043;28;20029;-59
2020/12/04 15:00:31;;;;;;;12.70;1.67;;;;;;;;;;5051148;28;20036;-54
2020/12/04 15:02:59;;;;;;;15.07;2.00;;;;;;;;;;5049835;28;20037;-53
2020/12/04 15:05:26;;;;;;;13.20;1.65;;;;;;;;;;5051309;28;20021;-52
2020/12/04 15:07:52;;;;;;;5.63;1.20;;;;;;;;;;5049548;28;20082;-57
2020/12/04 15:10:18;;;;;;;8.80;1.30;;;;;;;;;;5050750;28;20017;-62
2020/12/04 15:12:44;;;;;;;8.30;1.50;;;;;;;;;;5053093;28;20486;-53
2020/12/04 15:15:10;;;;;;;8.43;1.55;;;;;;;;;;5049376;28;20033;-56
2020/12/04 15:17:36;;;;;;;9.80;1.48;;;;;;;;;;5048101;28;20024;-53
2020/12/04 15:20:03;;;;;;;9.13;1.35;;;;;;;;;;5049578;28;20021;-54
2020/12/04 15:22:30;;;;;;;8.60;1.58;;;;;;;;;;5049046;28;20063;-55
2020/12/04 15:24:56;;;;;;;10.15;1.70;;;;;;;;;;5055366;28;20036;-55
2020/12/04 15:27:22;;;;;;;15.38;2.35;;;;;;;;;;5050730;28;20044;-55
2020/12/04 15:29:48;;;;;;;7.88;1.55;;;;;;;;;;5049641;28;20445;-53
2020/12/04 15:32:14;;;;;;;9.10;1.58;;;;;;;;;;5048548;28;20029;-55
2020/12/04 15:34:41;;;;;;;8.98;1.50;;;;;;;;;;5049304;28;20028;-56
2020/12/04 15:37:07;;;;;;;15.27;1.67;;;;;;;;;;5050546;28;20532;-56
2020/12/04 15:39:33;;;;;;;9.70;1.02;;;;;;;;;;5051648;28;20033;-58
2020/12/04 15:42:01;;;;;;;11.40;1.83;;;;;;;;;;5049203;28;20024;-55
2020/12/04 15:44:27;;;;;;;12.27;1.75;;;;;;;;;;5049076;28;20029;-57
2020/12/04 15:46:56;;;;;;;12.30;1.58;;;;;;;;;;5048613;28;20025;-53
2020/12/04 15:49:26;;;;;;;16.38;1.48;;;;;;;;;;5048547;28;20040;-55
2020/12/04 15:51:56;;;;;;;10.30;1.60;;;;;;;;;;5051498;28;20052;-53
2020/12/04 15:54:23;;;;;;;12.13;1.38;;;;;;;;;;5052314;28;20066;-56
2020/12/04 15:56:49;;;;;;;10.55;1.27;;;;;;;;;;5048520;28;20052;-58
2020/12/04 15:59:16;;;;;;;9.35;1.55;;;;;;;;;;5048559;28;20108;-56
2020/12/04 16:01:42;;;;;;;8.52;1.52;;;;;;;;;;5046419;28;20068;-56
2020/12/04 16:04:09;;;;;;;12.32;1.80;;;;;;;;;;5036530;28;20758;-55
2020/12/04 16:06:38;;;;;;;10.50;3.05;;;;;;;;;;5043107;28;20021;-53
2020/12/04 16:09:05;;;;;;;5.22;1.27;;;;;;;;;;5042454;28;20455;-56
2020/12/04 16:11:31;;;;;;;6.10;1.55;;;;;;;;;;5037378;28;20179;-54
2020/12/04 16:13:58;;;;;;;8.32;1.08;;;;;;;;;;5035310;28;20025;-55
2020/12/04 16:16:25;;;;;;;8.98;1.15;;;;;;;;;;5039707;28;20033;-56
2020/12/04 16:18:52;;;;;;;6.63;1.10;;;;;;;;;;5031985;28;20040;-55
2020/12/04 16:21:18;;;;;;;8.05;1.20;;;;;;;;;;5034004;28;20467;-53
2020/12/04 16:23:44;;;;;;;9.25;1.00;;;;;;;;;;5034605;28;20033;-54
2020/12/04 16:26:11;;;;;;;11.10;1.15;;;;;;;;;;5031668;28;20544;-56
2020/12/04 16:28:38;;;;;;;8.38;0.90;;;;;;;;;;5030122;28;20029;-54
2020/12/04 16:31:04;;;;;;;3.95;0.60;;;;;;;;;;5033946;28;20399;-56
2020/12/04 16:33:32;;;;;;;6.10;1.25;;;;;;;;;;5033740;28;20551;-53
2020/12/04 16:35:58;;;;;;;7.07;1.00;;;;;;;;;;5031288;28;20025;-56
2020/12/04 16:38:25;;;;;;;9.18;1.00;;;;;;;;;;5031002;28;20052;-56
2020/12/04 16:40:51;;;;;;;5.88;1.23;;;;;;;;;;5031121;28;20021;-56
2020/12/04 16:43:18;;;;;;;4.72;1.00;;;;;;;;;;5031902;28;20036;-52
2020/12/04 16:45:44;;;;;;;9.13;1.40;;;;;;;;;;5029635;28;20025;-53
2020/12/04 16:48:11;;;;;;;25.55;5.43;;;;;;;;;;5030746;28;20030;-55
2020/12/04 16:50:37;;;;;;;20.05;7.80;;;;;;;;;;5037461;28;20040;-56
2020/12/04 16:53:03;;;;;;;13.20;3.97;;;;;;;;;;5031496;28;20036;-55
2020/12/04 16:55:30;;;;;;;9.82;2.95;;;;;;;;;;5031310;28;20023;-56
2020/12/04 16:57:56;;;;;;;14.32;4.18;;;;;;;;;;5031193;28;20021;-57
2020/12/04 17:00:22;;;;;;;9.75;1.58;;;;;;;;;;5038243;28;20025;-57
2020/12/04 17:02:49;;;;;;;9.57;3.13;;;;;;;;;;5031685;28;20045;-53
2020/12/04 17:05:16;;;;;;;10.93;2.08;;;;;;;;;;5044792;28;20433;-56
2020/12/04 17:07:42;;;;;;;5.68;2.20;;;;;;;;;;5045851;28;20490;-56
2020/12/04 17:10:09;;;;;;;10.25;2.13;;;;;;;;;;5046134;28;20029;-57
2020/12/04 17:12:35;;;;;;;12.00;1.55;;;;;;;;;;5047217;28;20094;-54
2020/12/04 17:15:02;;;;;;;5.38;1.17;;;;;;;;;;5044801;28;20023;-56
2020/12/04 17:17:28;;;;;;;5.50;0.80;;;;;;;;;;5076610;28;20515;-57
2020/12/04 17:19:56;;;;;;;4.40;1.25;;;;;;;;;;5044640;28;20029;-56
2020/12/04 17:22:23;;;;;;;8.07;1.60;;;;;;;;;;5044650;28;20033;-56
2020/12/04 17:24:49;;;;;;;12.55;2.42;;;;;;;;;;5046816;28;20017;-60
2020/12/04 17:27:16;;;;;;;10.63;3.25;;;;;;;;;;5046849;28;20037;-59
2020/12/04 17:29:43;;;;;;;11.90;3.10;;;;;;;;;;5044663;28;20155;-55
2020/12/04 17:32:12;;;;;;;14.93;3.60;;;;;;;;;;5044573;28;20520;-57
2020/12/04 17:34:38;;;;;;;15.30;4.90;;;;;;;;;;5044504;28;20092;-57
2020/12/04 17:37:05;;;;;;;15.05;4.25;;;;;;;;;;5045744;28;20490;-56
2020/12/04 17:39:31;;;;;;;14.93;5.90;;;;;;;;;;5046424;28;20096;-56
2020/12/04 17:42:00;;;;;;;13.52;4.95;;;;;;;;;;5046546;28;20029;-56
2020/12/04 17:44:27;;;;;;;24.17;5.47;;;;;;;;;;5045688;28;20025;-57
2020/12/04 17:46:54;;;;;;;12.15;5.20;;;;;;;;;;5043964;28;20543;-57
2020/12/04 17:49:23;;;;;;;13.32;4.93;;;;;;;;;;5046582;28;20029;-58
2020/12/04 17:51:50;;;;;;;17.65;5.82;;;;;;;;;;5047793;28;20040;-56
2020/12/04 17:54:17;;;;;;;16.10;5.75;;;;;;;;;;5044966;28;20035;-56
2020/12/04 17:56:44;;;;;;;14.82;5.13;;;;;;;;;;5046152;28;20041;-68
2020/12/04 17:59:10;;;;;;;24.60;6.88;;;;;;;;;;5045587;28;20024;-57
2020/12/04 18:01:39;;;;;;;17.70;7.65;;;;;;;;;;5044984;28;20530;-58
2020/12/04 18:04:06;;;;;;;17.88;7.40;;;;;;;;;;5044959;28;20123;-57
2020/12/04 18:06:32;;;;;;;12.93;2.85;;;;;;;;;;5046263;28;20029;-57
2020/12/04 18:08:59;;;;;;;12.38;5.13;;;;;;;;;;5045277;28;20029;-58
2020/12/04 18:11:26;;;;;;;24.92;9.07;;;;;;;;;;5044523;28;20493;-55
2020/12/04 18:13:53;;;;;;;15.52;2.92;;;;;;;;;;5046320;28;20031;-56
2020/12/04 18:16:20;;;;;;;10.07;3.90;;;;;;;;;;5045621;28;20017;-57
2020/12/04 18:18:47;;;;;;;10.70;3.13;;;;;;;;;;5045878;28;20017;-58
2020/12/04 18:21:17;;;;;;;14.05;4.20;;;;;;;;;;5046444;28;20449;-56
2020/12/04 18:23:45;;;;;;;17.58;6.40;;;;;;;;;;5047545;28;20021;-57
2020/12/04 18:26:11;;;;;;;11.77;5.78;;;;;;;;;;5046772;28;20021;-55
2020/12/04 18:28:39;;;;;;;16.10;7.70;;;;;;;;;;5047266;28;20026;-56
2020/12/04 18:31:05;;;;;;;17.65;6.97;;;;;;;;;;5049155;28;20037;-60
2020/12/04 18:33:32;;;;;;;13.20;4.80;;;;;;;;;;5048690;28;20112;-56
2020/12/04 18:35:58;;;;;;;23.23;5.32;;;;;;;;;;5047036;28;20013;-57
2020/12/04 18:38:25;;;;;;;16.60;5.68;;;;;;;;;;5046704;28;20013;-54
2020/12/04 18:40:51;;;;;;;16.02;6.22;;;;;;;;;;5047170;28;20032;-60
2020/12/04 18:43:17;;;;;;;19.77;6.93;;;;;;;;;;5032308;28;20029;-56
2020/12/04 18:45:43;;;;;;;17.20;5.90;;;;;;;;;;5050016;28;20029;-56
2020/12/04 18:48:10;;;;;;;19.25;6.47;;;;;;;;;;5046751;28;20433;-57
2020/12/04 18:50:36;;;;;;;20.05;8.55;;;;;;;;;;5046050;28;20504;-56
2020/12/04 18:53:03;;;;;;;24.48;10.50;;;;;;;;;;5045995;28;20532;-54
2020/12/04 18:55:29;;;;;;;20.15;6.13;;;;;;;;;;5046477;28;20604;-55
2020/12/04 18:57:56;;;;;;;24.67;8.90;;;;;;;;;;5047524;28;20124;-56
2020/12/04 19:00:22;;;;;;;20.40;7.97;;;;;;;;;;5051514;28;20155;-57
2020/12/04 19:02:49;;;;;;;27.17;10.52;;;;;;;;;;5048451;28;20029;-57
2020/12/04 19:05:15;;;;;;;24.17;11.80;;;;;;;;;;5050579;28;20104;-58
2020/12/04 19:07:43;;;;;;;24.33;10.43;;;;;;;;;;5051381;28;20029;-57
2020/12/04 19:10:10;;;;;;;22.55;8.98;;;;;;;;;;5051269;28;20029;-57
2020/12/04 19:12:36;;;;;;;17.27;9.05;;;;;;;;;;5046787;28;20396;-57
2020/12/04 19:15:05;;;;;;;17.45;7.18;;;;;;;;;;5044536;28;20032;-56
2020/12/04 19:17:32;;;;;;;10.30;3.90;;;;;;;;;;5042915;28;20035;-56
2020/12/04 19:19:59;;;;;;;11.18;3.13;;;;;;;;;;5048373;28;20044;-57
2020/12/04 19:22:26;;;;;;;15.02;5.47;;;;;;;;;;5047854;28;20891;-56
2020/12/04 19:24:53;;;;;;;14.60;4.20;;;;;;;;;;5047569;28;20170;-58
2020/12/04 19:27:19;;;;;;;9.90;3.55;;;;;;;;;;5048868;28;20029;-62
2020/12/04 19:29:46;;;;;;;13.02;3.58;;;;;;;;;;5047216;28;20770;-53
2020/12/04 19:32:13;;;;;;;12.43;4.40;;;;;;;;;;5044490;28;21080;-57
2020/12/04 19:34:39;;;;;;;10.95;3.72;;;;;;;;;;5045416;28;20025;-58
2020/12/04 19:37:06;;;;;;;11.82;4.97;;;;;;;;;;5041774;28;20064;-56
2020/12/04 19:39:33;;;;;;;15.77;4.25;;;;;;;;;;5037816;28;20021;-56
2020/12/04 19:42:00;;;;;;;16.15;5.95;;;;;;;;;;5046060;28;20028;-57
2020/12/04 19:44:28;;;;;;;21.30;7.72;;;;;;;;;;5045096;28;20035;-61
2020/12/04 19:46:54;;;;;;;12.23;6.47;;;;;;;;;;5041363;28;20029;-59
2020/12/04 19:49:21;;;;;;;16.80;5.45;;;;;;;;;;5043604;28;20029;-58
2020/12/04 19:51:47;;;;;;;19.45;7.57;;;;;;;;;;5043797;28;20112;-56
2020/12/04 19:54:14;;;;;;;26.15;9.80;;;;;;;;;;5036624;28;20017;-57
2020/12/04 19:56:43;;;;;;;20.15;8.07;;;;;;;;;;5041850;28;20024;-56
2020/12/04 19:59:11;;;;;;;14.02;7.13;;;;;;;;;;5029454;28;20558;-61
2020/12/04 20:01:38;;;;;;;11.80;4.97;;;;;;;;;;5031488;28;20064;-58
2020/12/04 20:04:05;;;;;;;13.32;6.90;;;;;;;;;;5037478;28;20040;-55
2020/12/04 20:06:37;;;;;;;13.55;5.28;;;;;;;;;;5046169;28;20383;-58
2020/12/04 20:09:04;;;;;;;12.15;6.38;;;;;;;;;;5045211;28;20067;-57
2020/12/04 20:11:30;;;;;;;11.35;6.55;;;;;;;;;;5045035;28;20055;-57
2020/12/04 20:13:57;;;;;;;13.73;5.03;;;;;;;;;;5045316;28;20025;-56
2020/12/04 20:16:23;;;;;;;14.93;6.30;;;;;;;;;;5044909;28;20041;-55
2020/12/04 20:18:50;;;;;;;14.07;5.63;;;;;;;;;;5039318;28;20021;-62
2020/12/04 20:21:19;;;;;;;12.00;4.60;;;;;;;;;;5045072;28;20019;-57
2020/12/04 20:23:45;;;;;;;14.82;4.32;;;;;;;;;;5044579;28;20116;-54
2020/12/04 20:26:12;;;;;;;9.60;4.35;;;;;;;;;;5045244;28;20027;-57
2020/12/04 20:28:38;;;;;;;19.40;6.28;;;;;;;;;;5045235;28;20074;-53
2020/12/04 20:31:06;;;;;;;13.13;4.35;;;;;;;;;;5044529;28;20028;-59
2020/12/04 20:33:34;;;;;;;11.65;4.20;;;;;;;;;;5044978;28;20035;-56
2020/12/04 20:36:02;;;;;;;14.70;3.72;;;;;;;;;;5044904;28;20036;-56
2020/12/04 20:38:28;;;;;;;10.98;3.08;;;;;;;;;;5041996;28;20163;-59
2020/12/04 20:40:55;;;;;;;11.18;3.28;;;;;;;;;;5039906;28;20040;-56
2020/12/04 20:43:21;;;;;;;7.38;3.17;;;;;;;;;;5044648;28;20032;-56